createdAt,value
2018-11-23T00:00:20.555Z,19.20
2018-11-23T00:02:49.353Z,19.07
2018-11-23T00:05:17.733Z,19.70
2018-11-23T00:07:46.115Z,18.00
2018-11-23T00:10:15.516Z,19.07
2018-11-23T00:12:43.947Z,18.30
2018-11-23T00:15:13.303Z,18.17
2018-11-23T00:17:41.483Z,19.30
2018-11-23T00:20:12.025Z,18.60
2018-11-23T00:22:40.403Z,17.80
2018-11-23T00:25:10.223Z,18.17
2018-11-23T00:27:38.599Z,18.57
2018-11-23T00:30:13.879Z,17.10
2018-11-23T00:32:42.428Z,19.93
2018-11-23T00:35:12.632Z,16.93
2018-11-23T00:37:40.763Z,17.47
2018-11-23T00:40:10.939Z,17.97
2018-11-23T00:42:39.337Z,18.80
2018-11-23T00:45:09.299Z,18.00
2018-11-23T00:47:37.483Z,16.97
2018-11-23T00:50:07.612Z,18.97
2018-11-23T00:52:35.835Z,17.77
2018-11-23T00:55:04.067Z,17.60
2018-11-23T00:57:32.210Z,17.50
2018-11-23T01:00:00.363Z,17.00
2018-11-23T01:02:28.547Z,17.77
2018-11-23T01:04:56.678Z,17.90
2018-11-23T01:07:24.825Z,17.03
2018-11-23T01:09:52.955Z,16.80
2018-11-23T01:12:21.099Z,19.00
2018-11-23T01:14:49.235Z,19.20
2018-11-23T01:17:17.383Z,19.70
2018-11-23T01:19:45.535Z,21.17
2018-11-23T01:22:13.675Z,20.77
2018-11-23T01:24:41.818Z,20.53
2018-11-23T01:27:09.971Z,19.90
2018-11-23T01:29:38.112Z,19.57
2018-11-23T01:32:06.251Z,17.83
2018-11-23T01:34:34.399Z,20.00
2018-11-23T01:37:02.539Z,18.17
2018-11-23T01:39:30.692Z,18.07
2018-11-23T01:41:58.823Z,18.50
2018-11-23T01:44:26.975Z,18.97
2018-11-23T01:46:55.107Z,16.87
2018-11-23T01:49:23.246Z,18.13
2018-11-23T01:51:51.382Z,18.07
2018-11-23T01:54:19.522Z,17.60
2018-11-23T01:56:47.655Z,17.77
2018-11-23T01:59:15.795Z,17.30
2018-11-23T02:01:43.931Z,17.03
2018-11-23T02:04:12.067Z,17.77
2018-11-23T02:06:40.198Z,18.37
2018-11-23T02:09:08.518Z,18.00
2018-11-23T02:11:36.646Z,18.60
2018-11-23T02:14:04.883Z,18.33
2018-11-23T02:16:33.015Z,16.80
2018-11-23T02:19:01.160Z,17.70
2018-11-23T02:21:29.287Z,17.70
2018-11-23T02:23:57.431Z,17.90
2018-11-23T02:26:25.566Z,17.57
2018-11-23T02:28:53.698Z,17.30
2018-11-23T02:31:27.167Z,17.17
2018-11-23T02:33:55.308Z,17.50
2018-11-23T02:36:23.443Z,18.07
2018-11-23T02:38:51.584Z,18.10
2018-11-23T02:41:19.707Z,17.07
2018-11-23T02:43:48.018Z,17.57
2018-11-23T02:46:16.159Z,17.70
2018-11-23T02:48:44.394Z,17.07
2018-11-23T02:51:12.526Z,18.27
2018-11-23T02:53:40.658Z,18.10
2018-11-23T02:56:08.786Z,17.40
2018-11-23T02:58:36.930Z,16.60
2018-11-23T03:01:05.070Z,16.37
2018-11-23T03:03:33.220Z,15.80
2018-11-23T03:06:01.343Z,16.93
2018-11-23T03:08:29.493Z,16.70
2018-11-23T03:10:57.623Z,17.47
2018-11-23T03:13:25.763Z,16.17
2018-11-23T03:15:53.909Z,16.40
2018-11-23T03:18:22.046Z,16.90
2018-11-23T03:20:50.171Z,18.10
2018-11-23T03:23:18.298Z,16.70
2018-11-23T03:25:46.455Z,17.33
2018-11-23T03:28:14.586Z,17.03
2018-11-23T03:30:42.723Z,16.67
2018-11-23T03:33:10.860Z,17.00
2018-11-23T03:35:39.000Z,16.53
2018-11-23T03:38:07.132Z,18.53
2018-11-23T03:40:35.292Z,17.47
2018-11-23T03:43:03.427Z,17.50
2018-11-23T03:45:31.567Z,16.90
2018-11-23T03:47:59.700Z,17.10
2018-11-23T03:50:27.891Z,18.13
2018-11-23T03:52:56.033Z,17.23
2018-11-23T03:55:24.178Z,16.00
2018-11-23T03:57:52.304Z,16.80
2018-11-23T04:00:22.658Z,15.93
2018-11-23T04:02:51.239Z,16.67
2018-11-23T04:05:19.645Z,17.10
2018-11-23T04:07:47.773Z,17.13
2018-11-23T04:10:16.499Z,18.07
2018-11-23T04:12:45.082Z,18.17
2018-11-23T04:15:13.679Z,17.23
2018-11-23T04:17:42.148Z,17.33
2018-11-23T04:20:12.076Z,16.37
2018-11-23T04:22:40.655Z,16.70
2018-11-23T04:25:09.146Z,16.40
2018-11-23T04:27:37.283Z,17.10
2018-11-23T04:30:07.958Z,15.73
2018-11-23T04:32:36.130Z,15.60
2018-11-23T04:35:05.096Z,16.63
2018-11-23T04:37:33.227Z,17.00
2018-11-23T04:40:01.426Z,15.30
2018-11-23T04:42:29.553Z,16.80
2018-11-23T04:44:57.699Z,16.90
2018-11-23T04:47:25.835Z,16.03
2018-11-23T04:49:53.987Z,18.07
2018-11-23T04:52:22.131Z,17.10
2018-11-23T04:54:50.286Z,16.50
2018-11-23T04:57:18.467Z,15.80
2018-11-23T04:59:46.583Z,17.20
2018-11-23T05:02:14.723Z,16.07
2018-11-23T05:04:42.907Z,15.67
2018-11-23T05:07:11.038Z,15.50
2018-11-23T05:09:39.195Z,16.10
2018-11-23T05:12:07.343Z,17.00
2018-11-23T05:14:35.486Z,16.33
2018-11-23T05:17:03.629Z,16.63
2018-11-23T05:19:31.783Z,15.17
2018-11-23T05:21:59.932Z,15.90
2018-11-23T05:24:28.074Z,15.40
2018-11-23T05:26:56.231Z,14.83
2018-11-23T05:29:24.366Z,15.93
2018-11-23T05:31:52.511Z,15.50
2018-11-23T05:34:20.656Z,15.97
2018-11-23T05:36:48.901Z,15.57
2018-11-23T05:39:17.022Z,16.10
2018-11-23T05:41:45.171Z,14.67
2018-11-23T05:44:13.315Z,15.30
2018-11-23T05:46:41.467Z,15.50
2018-11-23T05:49:09.599Z,17.87
2018-11-23T05:51:37.935Z,16.50
2018-11-23T05:54:06.407Z,16.20
2018-11-23T05:56:34.547Z,15.13
2018-11-23T05:59:02.679Z,15.77
2018-11-23T06:01:30.823Z,14.83
2018-11-23T06:03:58.967Z,15.17
2018-11-23T06:06:27.111Z,15.20
2018-11-23T06:08:55.261Z,15.40
2018-11-23T06:11:23.560Z,16.03
2018-11-23T06:13:51.700Z,16.30
2018-11-23T06:16:19.851Z,15.90
2018-11-23T06:18:47.993Z,15.50
2018-11-23T06:21:16.135Z,15.77
2018-11-23T06:23:44.270Z,15.87
2018-11-23T06:26:18.720Z,16.27
2018-11-23T06:28:46.878Z,16.50
2018-11-23T06:31:15.019Z,16.30
2018-11-23T06:33:44.506Z,17.73
2018-11-23T06:36:12.658Z,17.70
2018-11-23T06:38:40.795Z,17.97
2018-11-23T06:41:10.486Z,16.90
2018-11-23T06:43:37.523Z,17.17
2018-11-23T06:46:07.464Z,17.83
2018-11-23T06:48:35.627Z,18.23
2018-11-23T06:51:03.794Z,17.77
2018-11-23T06:53:31.943Z,16.87
2018-11-23T06:56:00.589Z,17.23
2018-11-23T06:58:28.734Z,17.97
2018-11-23T07:00:57.231Z,16.43
2018-11-23T07:03:25.619Z,17.23
2018-11-23T07:05:53.991Z,17.40
2018-11-23T07:08:22.691Z,16.97
2018-11-23T07:10:50.833Z,17.27
2018-11-23T07:13:18.987Z,16.00
2018-11-23T07:15:47.166Z,17.60
2018-11-23T07:18:15.307Z,18.70
2018-11-23T07:20:43.442Z,21.30
2018-11-23T07:23:11.591Z,19.20
2018-11-23T07:25:39.739Z,19.90
2018-11-23T07:28:11.370Z,18.20
2018-11-23T07:30:36.023Z,17.93
2018-11-23T07:33:04.170Z,18.20
2018-11-23T07:35:32.307Z,18.80
2018-11-23T07:38:00.458Z,16.80
2018-11-23T07:40:41.890Z,18.50
2018-11-23T07:43:10.034Z,17.30
2018-11-23T07:45:38.166Z,19.87
2018-11-23T07:48:06.739Z,19.30
2018-11-23T07:50:34.871Z,20.00
2018-11-23T07:53:03.024Z,18.80
2018-11-23T07:55:31.175Z,18.87
2018-11-23T07:57:59.322Z,19.60
2018-11-23T08:00:27.822Z,18.97
2018-11-23T08:02:55.973Z,20.80
2018-11-23T08:05:24.111Z,19.97
2018-11-23T08:07:52.255Z,18.70
2018-11-23T08:10:19.660Z,19.50
2018-11-23T08:12:49.131Z,18.57
2018-11-23T08:15:19.569Z,19.67
2018-11-23T08:17:47.712Z,17.63
2018-11-23T08:20:17.139Z,20.17
2018-11-23T08:22:45.434Z,18.17
2018-11-23T08:25:14.824Z,17.17
2018-11-23T08:27:43.727Z,19.77
2018-11-23T08:30:14.652Z,19.60
2018-11-23T08:32:42.839Z,21.83
2018-11-23T08:35:11.124Z,21.90
2018-11-23T08:37:39.507Z,21.60
2018-11-23T08:40:12.335Z,20.83
2018-11-23T08:42:40.708Z,20.67
2018-11-23T08:45:11.875Z,21.87
2018-11-23T08:47:40.198Z,22.40
2018-11-23T08:50:11.722Z,23.20
2018-11-23T08:52:39.866Z,22.20
2018-11-23T08:55:08.713Z,22.30
2018-11-23T08:57:36.860Z,23.83
2018-11-23T09:00:09.333Z,24.27
2018-11-23T09:02:37.484Z,26.60
2018-11-23T09:05:06.179Z,26.57
2018-11-23T09:07:34.356Z,23.83
2018-11-23T09:10:02.492Z,31.20
2018-11-23T09:12:30.712Z,24.47
2018-11-23T09:14:58.846Z,22.20
2018-11-23T09:17:26.992Z,21.53
2018-11-23T09:19:55.163Z,22.80
2018-11-23T09:22:23.637Z,21.07
2018-11-23T09:24:51.871Z,22.23
2018-11-23T09:27:20.011Z,22.57
2018-11-23T09:29:48.165Z,22.47
2018-11-23T09:32:16.595Z,22.40
2018-11-23T09:34:44.745Z,23.70
2018-11-23T09:37:13.020Z,22.10
2018-11-23T09:39:41.271Z,22.10
2018-11-23T09:42:09.403Z,23.37
2018-11-23T09:44:37.551Z,22.03
2018-11-23T09:47:09.959Z,21.23
2018-11-23T09:49:34.054Z,22.93
2018-11-23T09:52:02.191Z,21.00
2018-11-23T09:54:30.359Z,22.10
2018-11-23T09:56:58.490Z,22.60
2018-11-23T09:59:26.643Z,22.00
2018-11-23T10:01:54.783Z,22.17
2018-11-23T10:04:22.966Z,22.20
2018-11-23T10:06:51.131Z,20.27
2018-11-23T10:09:20.112Z,22.53
2018-11-23T10:11:48.250Z,21.73
2018-11-23T10:14:16.406Z,19.67
2018-11-23T10:16:44.582Z,21.27
2018-11-23T10:19:18.963Z,18.90
2018-11-23T10:21:47.322Z,21.40
2018-11-23T10:24:15.509Z,21.17
2018-11-23T10:26:43.646Z,21.10
2018-11-23T10:29:11.789Z,21.20
2018-11-23T10:31:39.927Z,21.40
2018-11-23T10:34:08.080Z,23.00
2018-11-23T10:36:36.226Z,21.80
2018-11-23T10:39:05.979Z,22.50
2018-11-23T10:41:34.140Z,21.13
2018-11-23T10:44:02.283Z,23.73
2018-11-23T10:46:30.432Z,21.37
2018-11-23T10:48:58.584Z,20.73
2018-11-23T10:51:26.727Z,22.50
2018-11-23T10:53:54.872Z,19.90
2018-11-23T10:56:23.032Z,20.63
2018-11-23T10:58:51.435Z,22.43
2018-11-23T11:01:25.034Z,20.03
2018-11-23T11:03:58.721Z,20.73
2018-11-23T11:06:32.194Z,20.07
2018-11-23T11:09:00.343Z,21.47
2018-11-23T11:11:28.591Z,20.13
2018-11-23T11:13:56.775Z,20.70
2018-11-23T11:16:24.923Z,21.30
2018-11-23T11:18:53.409Z,21.60
2018-11-23T11:21:21.645Z,22.43
2018-11-23T11:23:49.820Z,22.20
2018-11-23T11:26:17.975Z,19.57
2018-11-23T11:28:46.106Z,21.63
2018-11-23T11:31:14.354Z,22.37
2018-11-23T11:33:42.515Z,20.83
2018-11-23T11:36:10.675Z,21.77
2018-11-23T11:38:38.846Z,21.27
2018-11-23T11:41:07.193Z,21.73
2018-11-23T11:43:35.315Z,22.63
2018-11-23T11:46:03.475Z,20.80
2018-11-23T11:48:31.638Z,22.90
2018-11-23T11:50:59.878Z,23.80
2018-11-23T11:53:28.017Z,22.77
2018-11-23T11:55:56.234Z,22.40
2018-11-23T11:58:24.379Z,22.90
2018-11-23T12:00:52.555Z,22.50
2018-11-23T12:03:20.705Z,21.37
2018-11-23T12:05:48.848Z,22.27
2018-11-23T12:08:16.994Z,23.30
2018-11-23T12:10:45.134Z,21.93
2018-11-23T12:13:13.276Z,21.27
2018-11-23T12:15:41.423Z,21.90
2018-11-23T12:18:09.566Z,20.40
2018-11-23T12:20:37.707Z,22.27
2018-11-23T12:23:05.847Z,19.60
2018-11-23T12:25:33.996Z,22.10
2018-11-23T12:28:02.146Z,19.83
2018-11-23T12:30:30.274Z,21.00
2018-11-23T12:32:58.415Z,21.90
2018-11-23T12:35:26.556Z,19.57
2018-11-23T12:37:54.703Z,21.43
2018-11-23T12:40:22.838Z,21.60
2018-11-23T12:42:51.468Z,21.20
2018-11-23T12:45:20.869Z,21.57
2018-11-23T12:47:49.015Z,20.20
2018-11-23T12:50:19.059Z,21.23
2018-11-23T12:52:47.352Z,18.60
2018-11-23T12:55:16.082Z,21.40
2018-11-23T12:57:44.319Z,19.77
2018-11-23T13:00:21.792Z,22.13
2018-11-23T13:02:51.295Z,20.40
2018-11-23T13:05:20.103Z,21.10
2018-11-23T13:07:48.492Z,21.23
2018-11-23T13:10:16.635Z,21.73
2018-11-23T13:12:50.671Z,22.03
2018-11-23T13:15:12.923Z,21.10
2018-11-23T13:17:41.071Z,21.50
2018-11-23T13:20:11.310Z,22.30
2018-11-23T13:22:39.810Z,20.00
2018-11-23T13:25:10.679Z,20.80
2018-11-23T13:27:39.130Z,22.20
2018-11-23T13:30:12.963Z,22.37
2018-11-23T13:32:41.832Z,21.10
2018-11-23T13:35:11.331Z,23.30
2018-11-23T13:37:39.479Z,22.27
2018-11-23T13:40:10.251Z,21.27
2018-11-23T13:42:38.539Z,21.53
2018-11-23T13:45:08.137Z,21.03
2018-11-23T13:47:36.272Z,22.90
2018-11-23T13:50:05.371Z,21.57
2018-11-23T13:52:33.510Z,22.67
2018-11-23T13:55:01.688Z,21.20
2018-11-23T13:57:29.824Z,20.80
2018-11-23T13:59:57.954Z,21.97
2018-11-23T14:02:26.094Z,20.60
2018-11-23T14:04:54.235Z,19.33
2018-11-23T14:07:22.573Z,20.90
2018-11-23T14:09:50.707Z,21.47
2018-11-23T14:12:18.934Z,22.17
2018-11-23T14:14:47.107Z,21.77
2018-11-23T14:17:15.303Z,20.67
2018-11-23T14:19:43.424Z,21.60
2018-11-23T14:22:11.571Z,21.30
2018-11-23T14:24:39.703Z,21.73
2018-11-23T14:27:07.839Z,18.93
2018-11-23T14:29:35.979Z,22.03
2018-11-23T14:32:04.123Z,21.00
2018-11-23T14:34:32.262Z,22.50
2018-11-23T14:37:00.396Z,21.23
2018-11-23T14:39:28.534Z,21.50
2018-11-23T14:41:56.683Z,19.90
2018-11-23T14:44:24.819Z,21.27
2018-11-23T14:46:52.947Z,20.70
2018-11-23T14:49:21.087Z,20.23
2018-11-23T14:51:49.223Z,22.20
2018-11-23T14:54:17.371Z,20.77
2018-11-23T14:56:45.502Z,21.13
2018-11-23T14:59:13.641Z,19.70
2018-11-23T15:01:41.783Z,21.37
2018-11-23T15:04:09.928Z,19.40
2018-11-23T15:06:38.071Z,20.70
2018-11-23T15:09:08.615Z,19.77
2018-11-23T15:11:37.326Z,20.90
2018-11-23T15:14:06.082Z,20.20
2018-11-23T15:16:34.479Z,20.10
2018-11-23T15:19:02.627Z,21.00
2018-11-23T15:21:30.863Z,20.13
2018-11-23T15:24:00.915Z,19.50
2018-11-23T15:26:27.235Z,19.03
2018-11-23T15:28:55.419Z,20.17
2018-11-23T15:31:23.603Z,20.70
2018-11-23T15:33:51.747Z,21.20
2018-11-23T15:36:19.898Z,19.40
2018-11-23T15:38:48.049Z,18.57
2018-11-23T15:41:16.183Z,20.60
2018-11-23T15:43:44.334Z,19.70
2018-11-23T15:46:12.471Z,20.33
2018-11-23T15:48:40.619Z,20.00
2018-11-23T15:51:10.022Z,19.97
2018-11-23T15:53:38.345Z,20.10
2018-11-23T15:56:06.783Z,21.93
2018-11-23T15:58:34.959Z,19.77
2018-11-23T16:01:03.338Z,18.93
2018-11-23T16:03:31.490Z,20.60
2018-11-23T16:05:59.654Z,18.40
2018-11-23T16:08:27.781Z,19.60
2018-11-23T16:10:55.919Z,19.70
2018-11-23T16:13:24.051Z,19.50
2018-11-23T16:15:52.202Z,18.97
2018-11-23T16:18:20.330Z,20.90
2018-11-23T16:20:48.474Z,19.67
2018-11-23T16:23:18.774Z,19.57
2018-11-23T16:25:47.487Z,19.70
2018-11-23T16:28:15.751Z,20.83
2018-11-23T16:30:45.371Z,20.33
2018-11-23T16:33:15.075Z,19.10
2018-11-23T16:35:43.369Z,17.73
2018-11-23T16:38:12.964Z,19.50
2018-11-23T16:40:42.588Z,19.37
2018-11-23T16:43:11.978Z,19.77
2018-11-23T16:45:40.674Z,20.40
2018-11-23T16:48:09.970Z,20.53
2018-11-23T16:50:38.126Z,20.17
2018-11-23T16:53:06.606Z,19.63
2018-11-23T16:55:34.932Z,19.57
2018-11-23T16:58:04.425Z,19.57
2018-11-23T17:00:33.938Z,22.17
2018-11-23T17:03:04.458Z,19.90
2018-11-23T17:05:36.226Z,20.63
2018-11-23T17:08:05.391Z,20.10
2018-11-23T17:10:33.540Z,20.60
2018-11-23T17:13:01.684Z,19.43
2018-11-23T17:15:30.166Z,21.77
2018-11-23T17:17:58.315Z,20.03
2018-11-23T17:20:27.859Z,21.03
2018-11-23T17:22:57.250Z,22.10
2018-11-23T17:25:26.154Z,22.73
2018-11-23T17:27:55.251Z,20.50
2018-11-23T17:30:24.667Z,21.83
2018-11-23T17:32:52.938Z,21.60
2018-11-23T17:35:21.343Z,22.73
2018-11-23T17:37:49.498Z,22.57
2018-11-23T17:40:19.115Z,20.93
2018-11-23T17:42:47.246Z,22.13
2018-11-23T17:45:17.114Z,21.07
2018-11-23T17:47:45.283Z,21.07
2018-11-23T17:50:15.518Z,21.40
2018-11-23T17:52:43.894Z,21.20
2018-11-23T17:55:12.802Z,21.40
2018-11-23T17:57:41.679Z,22.57
2018-11-23T18:00:17.959Z,21.27
2018-11-23T18:02:46.737Z,20.73
2018-11-23T18:05:15.850Z,21.57
2018-11-23T18:07:44.015Z,21.20
2018-11-23T18:10:16.815Z,21.33
2018-11-23T18:12:45.385Z,20.23
2018-11-23T18:15:15.903Z,20.20
2018-11-23T18:17:44.699Z,22.83
2018-11-23T18:20:14.104Z,22.07
2018-11-23T18:22:42.596Z,22.23
2018-11-23T18:25:14.148Z,24.53
2018-11-23T18:27:43.040Z,23.30
2018-11-23T18:30:11.990Z,22.40
2018-11-23T18:32:40.128Z,22.70
2018-11-23T18:35:09.680Z,22.27
2018-11-23T18:37:37.818Z,24.20
2018-11-23T18:40:09.292Z,22.27
2018-11-23T18:42:37.422Z,21.20
2018-11-23T18:45:09.150Z,22.50
2018-11-23T18:47:37.412Z,22.60
2018-11-23T18:50:07.673Z,20.30
2018-11-23T18:52:35.823Z,22.13
2018-11-23T18:55:03.959Z,24.00
2018-11-23T18:57:32.106Z,22.93
2018-11-23T19:00:00.244Z,24.90
2018-11-23T19:02:28.483Z,23.70
2018-11-23T19:04:56.656Z,21.70
2018-11-23T19:07:24.774Z,24.77
2018-11-23T19:09:52.910Z,22.97
2018-11-23T19:12:21.067Z,26.87
2018-11-23T19:14:49.224Z,25.10
2018-11-23T19:17:17.486Z,24.30
2018-11-23T19:19:45.643Z,22.87
2018-11-23T19:22:13.854Z,22.70
2018-11-23T19:24:41.987Z,22.47
2018-11-23T19:27:11.261Z,21.40
2018-11-23T19:29:38.984Z,21.20
2018-11-23T19:32:07.123Z,20.50
2018-11-23T19:34:35.279Z,22.67
2018-11-23T19:37:03.487Z,22.07
2018-11-23T19:39:31.678Z,22.87
2018-11-23T19:41:59.828Z,21.37
2018-11-23T19:44:27.990Z,21.53
2018-11-23T19:46:56.151Z,24.03
2018-11-23T19:49:24.334Z,22.60
2018-11-23T19:51:52.494Z,20.57
2018-11-23T19:54:20.665Z,21.77
2018-11-23T19:56:48.806Z,21.77
2018-11-23T19:59:16.964Z,20.23
2018-11-23T20:01:45.144Z,22.77
2018-11-23T20:04:13.326Z,28.50
2018-11-23T20:06:42.792Z,30.67
2018-11-23T20:09:10.257Z,28.40
2018-11-23T20:11:38.668Z,27.50
2018-11-23T20:14:06.986Z,25.27
2018-11-23T20:16:35.138Z,26.53
2018-11-23T20:19:03.328Z,29.03
2018-11-23T20:21:31.507Z,24.73
2018-11-23T20:23:59.825Z,23.47
2018-11-23T20:26:28.012Z,21.53
2018-11-23T20:28:56.279Z,21.33
2018-11-23T20:31:24.457Z,22.57
2018-11-23T20:33:52.591Z,22.97
2018-11-23T20:36:20.732Z,23.00
2018-11-23T20:38:48.867Z,22.33
2018-11-23T20:41:17.039Z,21.10
2018-11-23T20:43:45.191Z,18.87
2018-11-23T20:46:13.416Z,20.30
2018-11-23T20:48:41.600Z,21.43
2018-11-23T20:51:09.776Z,21.40
2018-11-23T20:53:38.146Z,20.10
2018-11-23T20:56:06.288Z,20.73
2018-11-23T20:58:34.426Z,23.30
2018-11-23T21:01:02.591Z,21.17
2018-11-23T21:03:30.743Z,21.40
2018-11-23T21:05:58.918Z,22.33
2018-11-23T21:08:27.062Z,21.50
2018-11-23T21:10:55.235Z,22.07
2018-11-23T21:13:23.383Z,21.77
2018-11-23T21:15:51.599Z,21.13
2018-11-23T21:18:19.835Z,20.30
2018-11-23T21:20:48.014Z,21.67
2018-11-23T21:23:16.147Z,23.73
2018-11-23T21:25:44.309Z,21.47
2018-11-23T21:28:12.485Z,22.17
2018-11-23T21:30:40.623Z,21.50
2018-11-23T21:33:08.767Z,22.53
2018-11-23T21:35:36.960Z,21.43
2018-11-23T21:38:05.251Z,21.83
2018-11-23T21:40:33.391Z,22.10
2018-11-23T21:43:01.551Z,20.93
2018-11-23T21:45:29.755Z,20.33
2018-11-23T21:47:57.915Z,21.43
2018-11-23T21:50:26.148Z,21.17
2018-11-23T21:52:54.346Z,20.53
2018-11-23T21:55:23.459Z,20.20
2018-11-23T21:57:52.455Z,19.90
2018-11-23T22:00:20.599Z,20.07
2018-11-23T22:02:48.752Z,20.20
2018-11-23T22:05:16.915Z,21.90
2018-11-23T22:07:45.063Z,19.80
2018-11-23T22:10:17.219Z,22.27
2018-11-23T22:12:45.407Z,21.57
2018-11-23T22:15:16.124Z,21.30
2018-11-23T22:17:44.275Z,21.13
2018-11-23T22:20:14.419Z,22.97
2018-11-23T22:22:42.567Z,24.57
2018-11-23T22:25:11.906Z,23.33
2018-11-23T22:27:40.079Z,23.33
2018-11-23T22:30:11.635Z,23.03
2018-11-23T22:32:39.770Z,21.20
2018-11-23T22:35:09.010Z,21.77
2018-11-23T22:37:37.270Z,22.10
2018-11-23T22:40:08.138Z,21.07
2018-11-23T22:42:36.267Z,22.00
2018-11-23T22:45:04.607Z,20.33
2018-11-23T22:47:32.735Z,21.13
2018-11-23T22:50:00.882Z,20.63
2018-11-23T22:52:29.019Z,21.83
2018-11-23T22:54:57.158Z,20.73
2018-11-23T22:57:25.295Z,19.90
2018-11-23T22:59:53.439Z,22.03
2018-11-23T23:02:21.575Z,21.20
2018-11-23T23:04:49.706Z,21.30
2018-11-23T23:07:17.847Z,20.07
2018-11-23T23:09:45.991Z,20.10
2018-11-23T23:12:14.124Z,19.43
2018-11-23T23:14:42.263Z,20.13
2018-11-23T23:17:10.405Z,19.00
2018-11-23T23:19:38.660Z,20.27
2018-11-23T23:22:06.786Z,20.47
2018-11-23T23:24:34.934Z,20.03
2018-11-23T23:27:03.090Z,19.93
2018-11-23T23:29:31.231Z,20.40
2018-11-23T23:31:59.387Z,19.83
2018-11-23T23:34:27.535Z,18.63
2018-11-23T23:36:55.667Z,18.97
2018-11-23T23:39:23.815Z,21.00
2018-11-23T23:41:51.972Z,20.37
2018-11-23T23:44:20.132Z,20.50
2018-11-23T23:46:48.260Z,20.57
2018-11-23T23:49:16.406Z,20.90
2018-11-23T23:51:44.556Z,20.03
2018-11-23T23:54:12.744Z,19.17
2018-11-23T23:56:40.851Z,18.20
2018-11-23T23:59:08.998Z,19.37
